sensor_id;sensor_type;location;lat;lon;timestamp;temperature;humidity
7290;DHT22;63176;52.678;13.250;2024-02-28T00:01:37;5.10;99.90
7290;DHT22;63176;52.678;13.250;2024-02-28T00:04:03;5.10;99.90
7290;DHT22;63176;52.678;13.250;2024-02-28T00:06:29;5.00;99.90
7290;DHT22;63176;52.678;13.250;2024-02-28T00:08:54;5.00;99.90
7290;DHT22;63176;52.678;13.250;2024-02-28T00:11:20;5.00;99.90
7290;DHT22;63176;52.678;13.250;2024-02-28T00:13:46;5.10;99.90
7290;DHT22;63176;52.678;13.250;2024-02-28T00:16:12;5.00;99.90
7290;DHT22;63176;52.678;13.250;2024-02-28T00:18:38;5.00;99.90
7290;DHT22;63176;52.678;13.250;2024-02-28T00:21:04;5.00;99.90
7290;DHT22;63176;52.678;13.250;2024-02-28T00:23:30;5.00;99.90
7290;DHT22;63176;52.678;13.250;2024-02-28T00:25:56;5.00;99.90
7290;DHT22;63176;52.678;13.250;2024-02-28T00:28:21;5.00;99.90
7290;DHT22;63176;52.678;13.250;2024-02-28T00:30:47;5.10;99.90
7290;DHT22;63176;52.678;13.250;2024-02-28T00:33:12;5.00;99.90
7290;DHT22;63176;52.678;13.250;2024-02-28T00:35:39;5.00;99.90
7290;DHT22;63176;52.678;13.250;2024-02-28T00:38:05;5.00;99.90
7290;DHT22;63176;52.678;13.250;2024-02-28T00:40:31;4.90;99.90
7290;DHT22;63176;52.678;13.250;2024-02-28T00:42:57;5.00;99.90
7290;DHT22;63176;52.678;13.250;2024-02-28T00:45:23;4.90;99.90
7290;DHT22;63176;52.678;13.250;2024-02-28T00:47:49;4.90;99.90
7290;DHT22;63176;52.678;13.250;2024-02-28T00:50:15;4.90;99.90
7290;DHT22;63176;52.678;13.250;2024-02-28T00:52:40;4.90;99.90
7290;DHT22;63176;52.678;13.250;2024-02-28T00:55:07;4.90;99.90
7290;DHT22;63176;52.678;13.250;2024-02-28T00:57:32;4.90;99.90
7290;DHT22;63176;52.678;13.250;2024-02-28T00:59:58;4.90;99.90
7290;DHT22;63176;52.678;13.250;2024-02-28T01:02:24;4.90;99.90
7290;DHT22;63176;52.678;13.250;2024-02-28T01:04:50;4.90;99.90
7290;DHT22;63176;52.678;13.250;2024-02-28T01:07:15;4.90;99.90
7290;DHT22;63176;52.678;13.250;2024-02-28T01:09:41;4.90;99.90
7290;DHT22;63176;52.678;13.250;2024-02-28T01:12:07;4.90;99.90
7290;DHT22;63176;52.678;13.250;2024-02-28T01:14:33;5.00;99.90
7290;DHT22;63176;52.678;13.250;2024-02-28T01:16:59;5.00;99.90
7290;DHT22;63176;52.678;13.250;2024-02-28T01:19:24;5.00;99.90
7290;DHT22;63176;52.678;13.250;2024-02-28T01:21:50;5.00;99.90
7290;DHT22;63176;52.678;13.250;2024-02-28T01:24:16;5.00;99.90
7290;DHT22;63176;52.678;13.250;2024-02-28T01:26:41;5.00;99.90
7290;DHT22;63176;52.678;13.250;2024-02-28T01:29:07;5.00;99.90
7290;DHT22;63176;52.678;13.250;2024-02-28T01:31:32;5.00;99.90
7290;DHT22;63176;52.678;13.250;2024-02-28T01:33:58;5.00;99.90
7290;DHT22;63176;52.678;13.250;2024-02-28T01:36:24;5.00;99.90
7290;DHT22;63176;52.678;13.250;2024-02-28T01:38:50;5.00;99.90
7290;DHT22;63176;52.678;13.250;2024-02-28T01:41:15;4.90;99.90
7290;DHT22;63176;52.678;13.250;2024-02-28T01:43:41;5.00;99.90
7290;DHT22;63176;52.678;13.250;2024-02-28T01:46:26;5.00;99.90
7290;DHT22;63176;52.678;13.250;2024-02-28T01:48:56;5.00;99.90
7290;DHT22;63176;52.678;13.250;2024-02-28T01:51:24;4.90;99.90
7290;DHT22;63176;52.678;13.250;2024-02-28T01:53:52;4.90;99.90
7290;DHT22;63176;52.678;13.250;2024-02-28T01:56:19;4.90;99.90
7290;DHT22;63176;52.678;13.250;2024-02-28T01:58:46;4.90;99.90
7290;DHT22;63176;52.678;13.250;2024-02-28T02:01:16;4.90;99.90
7290;DHT22;63176;52.678;13.250;2024-02-28T02:03:43;4.90;99.90
7290;DHT22;63176;52.678;13.250;2024-02-28T02:06:10;4.90;99.90
7290;DHT22;63176;52.678;13.250;2024-02-28T02:08:36;4.90;99.90
7290;DHT22;63176;52.678;13.250;2024-02-28T02:11:02;4.90;99.90
7290;DHT22;63176;52.678;13.250;2024-02-28T02:13:28;4.90;99.90
7290;DHT22;63176;52.678;13.250;2024-02-28T02:15:54;4.90;99.90
7290;DHT22;63176;52.678;13.250;2024-02-28T02:18:20;4.90;99.90
7290;DHT22;63176;52.678;13.250;2024-02-28T02:20:49;4.90;99.90
7290;DHT22;63176;52.678;13.250;2024-02-28T02:23:15;4.90;99.90
7290;DHT22;63176;52.678;13.250;2024-02-28T02:25:47;4.90;99.90
7290;DHT22;63176;52.678;13.250;2024-02-28T02:28:14;4.90;99.90
7290;DHT22;63176;52.678;13.250;2024-02-28T02:30:40;4.90;99.90
7290;DHT22;63176;52.678;13.250;2024-02-28T02:33:07;4.90;99.90
7290;DHT22;63176;52.678;13.250;2024-02-28T02:35:36;4.90;99.90
7290;DHT22;63176;52.678;13.250;2024-02-28T02:38:02;4.80;99.90
7290;DHT22;63176;52.678;13.250;2024-02-28T02:40:27;4.90;99.90
7290;DHT22;63176;52.678;13.250;2024-02-28T02:42:53;4.80;99.90
7290;DHT22;63176;52.678;13.250;2024-02-28T02:45:19;4.80;99.90
7290;DHT22;63176;52.678;13.250;2024-02-28T02:47:44;4.90;99.90
7290;DHT22;63176;52.678;13.250;2024-02-28T02:50:10;4.90;99.90
7290;DHT22;63176;52.678;13.250;2024-02-28T02:52:36;4.90;99.90
7290;DHT22;63176;52.678;13.250;2024-02-28T02:55:02;4.80;99.90
7290;DHT22;63176;52.678;13.250;2024-02-28T02:57:27;4.90;99.90
7290;DHT22;63176;52.678;13.250;2024-02-28T02:59:53;4.80;99.90
7290;DHT22;63176;52.678;13.250;2024-02-28T03:02:19;4.90;99.90
7290;DHT22;63176;52.678;13.250;2024-02-28T03:04:44;4.90;99.90
7290;DHT22;63176;52.678;13.250;2024-02-28T03:07:10;4.80;99.90
7290;DHT22;63176;52.678;13.250;2024-02-28T03:09:36;4.80;99.90
7290;DHT22;63176;52.678;13.250;2024-02-28T03:12:01;4.90;99.90
7290;DHT22;63176;52.678;13.250;2024-02-28T03:14:27;4.90;99.90
7290;DHT22;63176;52.678;13.250;2024-02-28T03:16:56;4.80;99.90
7290;DHT22;63176;52.678;13.250;2024-02-28T03:19:22;4.80;99.90
7290;DHT22;63176;52.678;13.250;2024-02-28T03:21:48;4.80;99.90
7290;DHT22;63176;52.678;13.250;2024-02-28T03:24:13;4.90;99.90
7290;DHT22;63176;52.678;13.250;2024-02-28T03:26:39;4.80;99.90
7290;DHT22;63176;52.678;13.250;2024-02-28T03:29:05;4.90;99.90
7290;DHT22;63176;52.678;13.250;2024-02-28T03:31:30;4.90;99.90
7290;DHT22;63176;52.678;13.250;2024-02-28T03:33:56;4.90;99.90
7290;DHT22;63176;52.678;13.250;2024-02-28T03:36:22;4.80;99.90
7290;DHT22;63176;52.678;13.250;2024-02-28T03:38:47;4.80;99.90
7290;DHT22;63176;52.678;13.250;2024-02-28T03:41:13;4.80;99.90
7290;DHT22;63176;52.678;13.250;2024-02-28T03:43:39;4.80;99.90
7290;DHT22;63176;52.678;13.250;2024-02-28T03:46:04;4.80;99.90
7290;DHT22;63176;52.678;13.250;2024-02-28T03:48:30;4.80;99.90
7290;DHT22;63176;52.678;13.250;2024-02-28T03:50:56;4.90;99.90
7290;DHT22;63176;52.678;13.250;2024-02-28T03:53:21;4.80;99.90
7290;DHT22;63176;52.678;13.250;2024-02-28T03:55:47;4.90;99.90
7290;DHT22;63176;52.678;13.250;2024-02-28T03:58:13;4.80;99.90
7290;DHT22;63176;52.678;13.250;2024-02-28T04:00:38;4.90;99.90
7290;DHT22;63176;52.678;13.250;2024-02-28T04:03:05;4.80;99.90
7290;DHT22;63176;52.678;13.250;2024-02-28T04:05:31;4.80;99.90
7290;DHT22;63176;52.678;13.250;2024-02-28T04:07:56;4.80;99.90
7290;DHT22;63176;52.678;13.250;2024-02-28T04:10:22;4.90;99.90
7290;DHT22;63176;52.678;13.250;2024-02-28T04:12:48;4.90;99.90
7290;DHT22;63176;52.678;13.250;2024-02-28T04:15:14;4.90;99.90
7290;DHT22;63176;52.678;13.250;2024-02-28T04:17:40;4.80;99.90
7290;DHT22;63176;52.678;13.250;2024-02-28T04:22:36;4.80;99.90
7290;DHT22;63176;52.678;13.250;2024-02-28T04:25:01;4.90;99.90
7290;DHT22;63176;52.678;13.250;2024-02-28T04:27:27;4.90;99.90
7290;DHT22;63176;52.678;13.250;2024-02-28T04:29:53;4.90;99.90
7290;DHT22;63176;52.678;13.250;2024-02-28T04:32:18;4.90;99.90
7290;DHT22;63176;52.678;13.250;2024-02-28T04:34:44;4.90;99.90
7290;DHT22;63176;52.678;13.250;2024-02-28T04:37:09;4.90;99.90
7290;DHT22;63176;52.678;13.250;2024-02-28T04:39:35;4.80;99.90
7290;DHT22;63176;52.678;13.250;2024-02-28T04:42:01;4.80;99.90
7290;DHT22;63176;52.678;13.250;2024-02-28T04:44:26;4.80;99.90
7290;DHT22;63176;52.678;13.250;2024-02-28T04:46:52;4.90;99.90
7290;DHT22;63176;52.678;13.250;2024-02-28T04:49:18;4.80;99.90
7290;DHT22;63176;52.678;13.250;2024-02-28T04:51:43;4.80;99.90
7290;DHT22;63176;52.678;13.250;2024-02-28T04:54:09;4.90;99.90
7290;DHT22;63176;52.678;13.250;2024-02-28T04:56:42;4.80;99.90
7290;DHT22;63176;52.678;13.250;2024-02-28T04:59:11;4.80;99.90
7290;DHT22;63176;52.678;13.250;2024-02-28T05:01:38;4.90;99.90
7290;DHT22;63176;52.678;13.250;2024-02-28T05:04:06;4.90;99.90
7290;DHT22;63176;52.678;13.250;2024-02-28T05:06:32;4.90;99.90
7290;DHT22;63176;52.678;13.250;2024-02-28T05:08:57;4.90;99.90
7290;DHT22;63176;52.678;13.250;2024-02-28T05:11:23;4.90;99.90
7290;DHT22;63176;52.678;13.250;2024-02-28T05:13:49;4.90;99.90
7290;DHT22;63176;52.678;13.250;2024-02-28T05:16:15;4.90;99.90
7290;DHT22;63176;52.678;13.250;2024-02-28T05:18:41;4.80;99.90
7290;DHT22;63176;52.678;13.250;2024-02-28T05:21:07;4.80;99.90
7290;DHT22;63176;52.678;13.250;2024-02-28T05:23:33;4.80;99.90
7290;DHT22;63176;52.678;13.250;2024-02-28T05:25:59;4.80;99.90
7290;DHT22;63176;52.678;13.250;2024-02-28T05:28:38;4.80;99.90
7290;DHT22;63176;52.678;13.250;2024-02-28T05:31:25;4.80;99.90
7290;DHT22;63176;52.678;13.250;2024-02-28T05:33:56;4.90;99.90
7290;DHT22;63176;52.678;13.250;2024-02-28T05:36:23;4.80;99.90
7290;DHT22;63176;52.678;13.250;2024-02-28T05:38:49;4.80;99.90
7290;DHT22;63176;52.678;13.250;2024-02-28T05:41:16;4.80;99.90
7290;DHT22;63176;52.678;13.250;2024-02-28T05:43:43;4.80;99.90
7290;DHT22;63176;52.678;13.250;2024-02-28T05:46:09;4.80;99.90
7290;DHT22;63176;52.678;13.250;2024-02-28T05:48:34;4.80;99.90
7290;DHT22;63176;52.678;13.250;2024-02-28T05:51:03;4.80;99.90
7290;DHT22;63176;52.678;13.250;2024-02-28T05:53:30;4.80;99.90
7290;DHT22;63176;52.678;13.250;2024-02-28T05:56:01;4.70;99.90
7290;DHT22;63176;52.678;13.250;2024-02-28T05:58:28;4.80;99.90
7290;DHT22;63176;52.678;13.250;2024-02-28T06:00:53;4.70;99.90
7290;DHT22;63176;52.678;13.250;2024-02-28T06:03:19;4.70;99.90
7290;DHT22;63176;52.678;13.250;2024-02-28T06:05:45;4.80;99.90
7290;DHT22;63176;52.678;13.250;2024-02-28T06:08:10;4.80;99.90
7290;DHT22;63176;52.678;13.250;2024-02-28T06:10:36;4.80;99.90
7290;DHT22;63176;52.678;13.250;2024-02-28T06:13:02;4.70;99.90
7290;DHT22;63176;52.678;13.250;2024-02-28T06:15:28;4.70;99.90
7290;DHT22;63176;52.678;13.250;2024-02-28T06:17:57;4.60;99.90
7290;DHT22;63176;52.678;13.250;2024-02-28T06:20:22;4.60;99.90
7290;DHT22;63176;52.678;13.250;2024-02-28T06:22:48;4.60;99.90
7290;DHT22;63176;52.678;13.250;2024-02-28T06:25:14;4.60;99.90
7290;DHT22;63176;52.678;13.250;2024-02-28T06:27:45;4.50;99.90
7290;DHT22;63176;52.678;13.250;2024-02-28T06:30:11;4.60;99.90
7290;DHT22;63176;52.678;13.250;2024-02-28T06:32:40;4.60;99.90
7290;DHT22;63176;52.678;13.250;2024-02-28T06:35:07;4.60;99.90
7290;DHT22;63176;52.678;13.250;2024-02-28T06:37:33;4.60;99.90
7290;DHT22;63176;52.678;13.250;2024-02-28T06:39:59;4.60;99.90
7290;DHT22;63176;52.678;13.250;2024-02-28T06:42:24;4.60;99.90
7290;DHT22;63176;52.678;13.250;2024-02-28T06:44:50;4.60;99.90
7290;DHT22;63176;52.678;13.250;2024-02-28T06:47:16;4.50;99.90
7290;DHT22;63176;52.678;13.250;2024-02-28T06:49:43;4.50;99.90
7290;DHT22;63176;52.678;13.250;2024-02-28T06:52:09;4.50;99.90
7290;DHT22;63176;52.678;13.250;2024-02-28T06:54:35;4.50;99.90
7290;DHT22;63176;52.678;13.250;2024-02-28T06:57:00;4.50;99.90
7290;DHT22;63176;52.678;13.250;2024-02-28T06:59:27;4.50;99.90
7290;DHT22;63176;52.678;13.250;2024-02-28T07:01:53;4.50;99.90
7290;DHT22;63176;52.678;13.250;2024-02-28T07:04:19;4.40;99.90
7290;DHT22;63176;52.678;13.250;2024-02-28T07:06:44;4.40;99.90
7290;DHT22;63176;52.678;13.250;2024-02-28T07:09:11;4.40;99.90
7290;DHT22;63176;52.678;13.250;2024-02-28T07:11:38;4.40;99.90
7290;DHT22;63176;52.678;13.250;2024-02-28T07:14:04;4.40;99.90
7290;DHT22;63176;52.678;13.250;2024-02-28T07:16:30;4.50;99.90
7290;DHT22;63176;52.678;13.250;2024-02-28T07:18:58;4.50;99.90
7290;DHT22;63176;52.678;13.250;2024-02-28T07:21:24;4.50;99.90
7290;DHT22;63176;52.678;13.250;2024-02-28T07:23:49;4.40;99.90
7290;DHT22;63176;52.678;13.250;2024-02-28T07:26:15;4.40;99.90
7290;DHT22;63176;52.678;13.250;2024-02-28T07:28:41;4.40;99.90
7290;DHT22;63176;52.678;13.250;2024-02-28T07:31:14;4.40;99.90
7290;DHT22;63176;52.678;13.250;2024-02-28T07:33:40;4.40;99.90
7290;DHT22;63176;52.678;13.250;2024-02-28T07:36:06;4.40;99.90
7290;DHT22;63176;52.678;13.250;2024-02-28T07:38:32;4.40;99.90
7290;DHT22;63176;52.678;13.250;2024-02-28T07:40:58;4.40;99.90
7290;DHT22;63176;52.678;13.250;2024-02-28T07:43:24;4.40;99.90
7290;DHT22;63176;52.678;13.250;2024-02-28T07:45:50;4.40;99.90
7290;DHT22;63176;52.678;13.250;2024-02-28T07:48:15;4.30;99.90
7290;DHT22;63176;52.678;13.250;2024-02-28T07:50:44;4.40;99.90
7290;DHT22;63176;52.678;13.250;2024-02-28T07:53:10;4.40;99.90
7290;DHT22;63176;52.678;13.250;2024-02-28T07:55:35;4.40;99.90
7290;DHT22;63176;52.678;13.250;2024-02-28T07:58:01;4.40;99.90
7290;DHT22;63176;52.678;13.250;2024-02-28T08:00:27;4.40;99.90
7290;DHT22;63176;52.678;13.250;2024-02-28T08:02:52;4.40;99.90
7290;DHT22;63176;52.678;13.250;2024-02-28T08:05:18;4.40;99.90
7290;DHT22;63176;52.678;13.250;2024-02-28T08:07:44;4.40;99.90
7290;DHT22;63176;52.678;13.250;2024-02-28T08:10:10;4.40;99.90
7290;DHT22;63176;52.678;13.250;2024-02-28T08:12:36;4.40;99.90
7290;DHT22;63176;52.678;13.250;2024-02-28T08:15:03;4.30;99.90
7290;DHT22;63176;52.678;13.250;2024-02-28T08:17:29;4.30;99.90
7290;DHT22;63176;52.678;13.250;2024-02-28T08:19:55;4.30;99.90
7290;DHT22;63176;52.678;13.250;2024-02-28T08:22:20;4.30;99.90
7290;DHT22;63176;52.678;13.250;2024-02-28T08:24:46;4.20;99.90
7290;DHT22;63176;52.678;13.250;2024-02-28T08:27:12;4.20;99.90
7290;DHT22;63176;52.678;13.250;2024-02-28T08:29:40;4.20;99.90
7290;DHT22;63176;52.678;13.250;2024-02-28T08:32:10;4.20;99.90
7290;DHT22;63176;52.678;13.250;2024-02-28T08:34:36;4.10;99.90
7290;DHT22;63176;52.678;13.250;2024-02-28T08:37:02;4.10;99.90
7290;DHT22;63176;52.678;13.250;2024-02-28T08:39:27;4.10;99.90
7290;DHT22;63176;52.678;13.250;2024-02-28T08:41:53;4.10;99.90
7290;DHT22;63176;52.678;13.250;2024-02-28T08:44:19;4.00;99.90
7290;DHT22;63176;52.678;13.250;2024-02-28T08:46:49;4.00;99.90
7290;DHT22;63176;52.678;13.250;2024-02-28T08:49:15;4.00;99.90
7290;DHT22;63176;52.678;13.250;2024-02-28T08:51:40;4.00;99.90
7290;DHT22;63176;52.678;13.250;2024-02-28T08:54:06;4.10;99.90
7290;DHT22;63176;52.678;13.250;2024-02-28T08:56:32;4.10;99.90
7290;DHT22;63176;52.678;13.250;2024-02-28T08:58:59;4.10;99.90
7290;DHT22;63176;52.678;13.250;2024-02-28T09:01:24;4.10;99.90
7290;DHT22;63176;52.678;13.250;2024-02-28T09:03:50;4.10;99.90
7290;DHT22;63176;52.678;13.250;2024-02-28T09:06:16;4.10;99.90
7290;DHT22;63176;52.678;13.250;2024-02-28T09:08:42;4.20;99.90
7290;DHT22;63176;52.678;13.250;2024-02-28T09:11:08;4.20;99.90
7290;DHT22;63176;52.678;13.250;2024-02-28T09:13:33;4.20;99.90
7290;DHT22;63176;52.678;13.250;2024-02-28T09:16:01;4.20;99.90
7290;DHT22;63176;52.678;13.250;2024-02-28T09:18:27;4.20;99.90
7290;DHT22;63176;52.678;13.250;2024-02-28T09:20:52;4.20;99.90
7290;DHT22;63176;52.678;13.250;2024-02-28T09:23:18;4.20;99.90
7290;DHT22;63176;52.678;13.250;2024-02-28T09:25:44;4.20;99.90
7290;DHT22;63176;52.678;13.250;2024-02-28T09:28:10;4.20;99.90
7290;DHT22;63176;52.678;13.250;2024-02-28T09:30:38;4.20;99.90
7290;DHT22;63176;52.678;13.250;2024-02-28T09:33:04;4.20;99.90
7290;DHT22;63176;52.678;13.250;2024-02-28T09:35:29;4.20;99.90
7290;DHT22;63176;52.678;13.250;2024-02-28T09:37:55;4.20;99.90
7290;DHT22;63176;52.678;13.250;2024-02-28T09:40:22;4.20;99.90
7290;DHT22;63176;52.678;13.250;2024-02-28T09:42:52;4.20;99.90
7290;DHT22;63176;52.678;13.250;2024-02-28T09:45:22;4.20;99.90
7290;DHT22;63176;52.678;13.250;2024-02-28T09:47:48;4.20;99.90
7290;DHT22;63176;52.678;13.250;2024-02-28T09:50:14;4.20;99.90
7290;DHT22;63176;52.678;13.250;2024-02-28T09:52:41;4.20;99.90
7290;DHT22;63176;52.678;13.250;2024-02-28T09:55:07;4.30;99.90
7290;DHT22;63176;52.678;13.250;2024-02-28T09:57:32;4.30;99.90
7290;DHT22;63176;52.678;13.250;2024-02-28T10:00:00;4.30;99.90
7290;DHT22;63176;52.678;13.250;2024-02-28T10:02:26;4.30;99.90
7290;DHT22;63176;52.678;13.250;2024-02-28T10:04:52;4.30;99.90
7290;DHT22;63176;52.678;13.250;2024-02-28T10:07:18;4.30;99.90
7290;DHT22;63176;52.678;13.250;2024-02-28T10:09:44;4.30;99.90
7290;DHT22;63176;52.678;13.250;2024-02-28T10:12:10;4.30;99.90
7290;DHT22;63176;52.678;13.250;2024-02-28T10:14:36;4.30;99.90
7290;DHT22;63176;52.678;13.250;2024-02-28T10:17:02;4.30;99.90
7290;DHT22;63176;52.678;13.250;2024-02-28T10:19:28;4.30;99.90
7290;DHT22;63176;52.678;13.250;2024-02-28T10:21:55;4.30;99.90
7290;DHT22;63176;52.678;13.250;2024-02-28T10:24:24;4.40;99.90
7290;DHT22;63176;52.678;13.250;2024-02-28T10:26:49;4.40;99.90
7290;DHT22;63176;52.678;13.250;2024-02-28T10:29:22;4.40;99.90
7290;DHT22;63176;52.678;13.250;2024-02-28T10:31:49;4.50;99.90
7290;DHT22;63176;52.678;13.250;2024-02-28T10:34:17;4.50;99.90
7290;DHT22;63176;52.678;13.250;2024-02-28T10:36:44;4.50;99.90
7290;DHT22;63176;52.678;13.250;2024-02-28T10:39:11;4.50;99.90
7290;DHT22;63176;52.678;13.250;2024-02-28T10:41:40;4.50;99.90
7290;DHT22;63176;52.678;13.250;2024-02-28T10:44:06;4.50;99.90
7290;DHT22;63176;52.678;13.250;2024-02-28T10:46:32;4.50;99.90
7290;DHT22;63176;52.678;13.250;2024-02-28T10:48:58;4.50;99.90
7290;DHT22;63176;52.678;13.250;2024-02-28T10:51:24;4.60;99.90
7290;DHT22;63176;52.678;13.250;2024-02-28T10:54:10;4.60;99.90
7290;DHT22;63176;52.678;13.250;2024-02-28T10:56:37;4.60;99.90
7290;DHT22;63176;52.678;13.250;2024-02-28T10:59:09;4.70;99.90
7290;DHT22;63176;52.678;13.250;2024-02-28T11:01:41;4.70;99.90
7290;DHT22;63176;52.678;13.250;2024-02-28T11:04:10;4.70;99.90
7290;DHT22;63176;52.678;13.250;2024-02-28T11:06:48;4.70;99.90
7290;DHT22;63176;52.678;13.250;2024-02-28T11:09:22;4.70;99.90
7290;DHT22;63176;52.678;13.250;2024-02-28T11:11:49;4.70;99.90
7290;DHT22;63176;52.678;13.250;2024-02-28T11:14:15;4.80;99.90
7290;DHT22;63176;52.678;13.250;2024-02-28T11:16:42;4.80;99.90
7290;DHT22;63176;52.678;13.250;2024-02-28T11:19:19;4.70;99.90
7290;DHT22;63176;52.678;13.250;2024-02-28T11:21:55;4.80;99.90
7290;DHT22;63176;52.678;13.250;2024-02-28T11:24:25;4.80;99.90
7290;DHT22;63176;52.678;13.250;2024-02-28T11:26:53;4.80;99.90
7290;DHT22;63176;52.678;13.250;2024-02-28T11:29:26;4.80;99.90
7290;DHT22;63176;52.678;13.250;2024-02-28T11:31:54;4.90;99.90
7290;DHT22;63176;52.678;13.250;2024-02-28T11:34:20;4.90;99.90
7290;DHT22;63176;52.678;13.250;2024-02-28T11:36:50;4.90;99.90
7290;DHT22;63176;52.678;13.250;2024-02-28T11:39:17;4.90;99.90
7290;DHT22;63176;52.678;13.250;2024-02-28T11:41:43;4.90;99.90
7290;DHT22;63176;52.678;13.250;2024-02-28T11:44:12;4.90;99.90
7290;DHT22;63176;52.678;13.250;2024-02-28T11:46:42;4.90;99.90
7290;DHT22;63176;52.678;13.250;2024-02-28T11:49:08;4.90;99.90
7290;DHT22;63176;52.678;13.250;2024-02-28T11:51:33;4.90;99.90
7290;DHT22;63176;52.678;13.250;2024-02-28T11:54:01;4.90;99.90
7290;DHT22;63176;52.678;13.250;2024-02-28T11:56:27;4.90;99.90
7290;DHT22;63176;52.678;13.250;2024-02-28T11:58:53;4.90;99.90
7290;DHT22;63176;52.678;13.250;2024-02-28T12:01:40;4.90;99.90
7290;DHT22;63176;52.678;13.250;2024-02-28T12:04:06;4.90;99.90
7290;DHT22;63176;52.678;13.250;2024-02-28T12:06:35;5.00;99.90
7290;DHT22;63176;52.678;13.250;2024-02-28T12:09:03;4.90;99.90
7290;DHT22;63176;52.678;13.250;2024-02-28T12:11:30;4.90;99.90
7290;DHT22;63176;52.678;13.250;2024-02-28T12:13:56;4.90;99.90
7290;DHT22;63176;52.678;13.250;2024-02-28T12:16:26;4.90;99.90
7290;DHT22;63176;52.678;13.250;2024-02-28T12:18:53;4.90;99.90
7290;DHT22;63176;52.678;13.250;2024-02-28T12:21:22;5.00;99.90
7290;DHT22;63176;52.678;13.250;2024-02-28T12:23:48;5.10;99.90
7290;DHT22;63176;52.678;13.250;2024-02-28T12:26:16;5.10;99.90
7290;DHT22;63176;52.678;13.250;2024-02-28T12:28:43;5.20;99.90
7290;DHT22;63176;52.678;13.250;2024-02-28T12:31:09;5.20;99.90
7290;DHT22;63176;52.678;13.250;2024-02-28T12:33:37;5.20;99.90
7290;DHT22;63176;52.678;13.250;2024-02-28T12:36:03;5.20;99.90
7290;DHT22;63176;52.678;13.250;2024-02-28T12:38:30;5.10;99.90
7290;DHT22;63176;52.678;13.250;2024-02-28T12:40:56;5.30;99.90
7290;DHT22;63176;52.678;13.250;2024-02-28T12:43:22;5.30;99.90
7290;DHT22;63176;52.678;13.250;2024-02-28T12:45:48;5.30;99.90
7290;DHT22;63176;52.678;13.250;2024-02-28T12:48:13;5.40;99.90
7290;DHT22;63176;52.678;13.250;2024-02-28T12:50:39;5.40;99.90
7290;DHT22;63176;52.678;13.250;2024-02-28T12:53:05;5.40;99.90
7290;DHT22;63176;52.678;13.250;2024-02-28T12:55:31;5.50;99.90
7290;DHT22;63176;52.678;13.250;2024-02-28T12:57:57;5.50;99.90
7290;DHT22;63176;52.678;13.250;2024-02-28T13:00:25;5.60;99.90
7290;DHT22;63176;52.678;13.250;2024-02-28T13:02:50;5.60;99.90
7290;DHT22;63176;52.678;13.250;2024-02-28T13:05:16;5.70;99.90
7290;DHT22;63176;52.678;13.250;2024-02-28T13:07:42;5.60;99.90
7290;DHT22;63176;52.678;13.250;2024-02-28T13:10:08;5.60;99.90
7290;DHT22;63176;52.678;13.250;2024-02-28T13:12:34;5.60;99.90
7290;DHT22;63176;52.678;13.250;2024-02-28T13:15:00;5.60;99.90
7290;DHT22;63176;52.678;13.250;2024-02-28T13:17:26;5.70;99.90
7290;DHT22;63176;52.678;13.250;2024-02-28T13:19:51;5.80;99.90
7290;DHT22;63176;52.678;13.250;2024-02-28T13:22:17;5.80;99.90
7290;DHT22;63176;52.678;13.250;2024-02-28T13:24:43;5.80;99.90
7290;DHT22;63176;52.678;13.250;2024-02-28T13:27:09;5.80;99.90
7290;DHT22;63176;52.678;13.250;2024-02-28T13:29:35;5.80;99.90
7290;DHT22;63176;52.678;13.250;2024-02-28T13:32:01;5.80;99.90
7290;DHT22;63176;52.678;13.250;2024-02-28T13:34:27;5.80;99.90
7290;DHT22;63176;52.678;13.250;2024-02-28T13:36:52;5.80;99.90
7290;DHT22;63176;52.678;13.250;2024-02-28T13:39:18;5.80;99.90
7290;DHT22;63176;52.678;13.250;2024-02-28T13:41:44;5.80;99.90
7290;DHT22;63176;52.678;13.250;2024-02-28T13:44:10;5.80;99.90
7290;DHT22;63176;52.678;13.250;2024-02-28T13:46:36;5.80;99.90
7290;DHT22;63176;52.678;13.250;2024-02-28T13:49:03;5.80;99.90
7290;DHT22;63176;52.678;13.250;2024-02-28T13:51:29;5.80;99.90
7290;DHT22;63176;52.678;13.250;2024-02-28T13:53:55;5.80;99.90
7290;DHT22;63176;52.678;13.250;2024-02-28T13:56:21;5.90;99.90
7290;DHT22;63176;52.678;13.250;2024-02-28T13:58:47;6.00;99.90
7290;DHT22;63176;52.678;13.250;2024-02-28T14:01:12;6.00;99.90
7290;DHT22;63176;52.678;13.250;2024-02-28T14:03:38;6.10;99.90
7290;DHT22;63176;52.678;13.250;2024-02-28T14:06:04;6.10;99.90
7290;DHT22;63176;52.678;13.250;2024-02-28T14:08:30;6.10;99.90
7290;DHT22;63176;52.678;13.250;2024-02-28T14:10:56;6.10;99.90
7290;DHT22;63176;52.678;13.250;2024-02-28T14:13:21;6.20;99.90
7290;DHT22;63176;52.678;13.250;2024-02-28T14:15:47;6.20;99.90
7290;DHT22;63176;52.678;13.250;2024-02-28T14:18:13;6.20;99.90
7290;DHT22;63176;52.678;13.250;2024-02-28T14:20:39;6.20;99.90
7290;DHT22;63176;52.678;13.250;2024-02-28T14:23:05;6.20;99.90
7290;DHT22;63176;52.678;13.250;2024-02-28T14:25:30;6.10;99.90
7290;DHT22;63176;52.678;13.250;2024-02-28T14:27:56;6.10;99.90
7290;DHT22;63176;52.678;13.250;2024-02-28T14:30:22;6.10;99.90
7290;DHT22;63176;52.678;13.250;2024-02-28T14:32:49;6.10;99.90
7290;DHT22;63176;52.678;13.250;2024-02-28T14:35:15;6.20;99.90
7290;DHT22;63176;52.678;13.250;2024-02-28T14:37:41;6.20;99.90
7290;DHT22;63176;52.678;13.250;2024-02-28T14:40:08;6.20;99.90
7290;DHT22;63176;52.678;13.250;2024-02-28T14:42:41;6.20;99.90
7290;DHT22;63176;52.678;13.250;2024-02-28T14:45:11;6.20;99.90
7290;DHT22;63176;52.678;13.250;2024-02-28T14:47:40;6.20;99.90
7290;DHT22;63176;52.678;13.250;2024-02-28T14:50:07;6.20;99.90
7290;DHT22;63176;52.678;13.250;2024-02-28T14:52:40;6.20;99.90
7290;DHT22;63176;52.678;13.250;2024-02-28T14:55:10;6.20;99.90
7290;DHT22;63176;52.678;13.250;2024-02-28T14:57:36;6.20;99.90
7290;DHT22;63176;52.678;13.250;2024-02-28T15:00:02;6.20;99.90
7290;DHT22;63176;52.678;13.250;2024-02-28T15:02:34;6.10;99.90
7290;DHT22;63176;52.678;13.250;2024-02-28T15:05:00;6.20;99.90
7290;DHT22;63176;52.678;13.250;2024-02-28T15:07:27;6.10;99.90
7290;DHT22;63176;52.678;13.250;2024-02-28T15:09:54;6.10;99.90
7290;DHT22;63176;52.678;13.250;2024-02-28T15:12:23;6.10;99.90
7290;DHT22;63176;52.678;13.250;2024-02-28T15:14:48;6.10;99.90
7290;DHT22;63176;52.678;13.250;2024-02-28T15:17:14;6.10;99.90
7290;DHT22;63176;52.678;13.250;2024-02-28T15:19:40;6.10;99.90
7290;DHT22;63176;52.678;13.250;2024-02-28T15:22:07;6.10;99.90
7290;DHT22;63176;52.678;13.250;2024-02-28T15:24:34;6.10;99.90
7290;DHT22;63176;52.678;13.250;2024-02-28T15:26:59;6.00;99.90
7290;DHT22;63176;52.678;13.250;2024-02-28T15:29:25;6.10;99.90
7290;DHT22;63176;52.678;13.250;2024-02-28T15:31:52;6.10;99.90
7290;DHT22;63176;52.678;13.250;2024-02-28T15:34:18;6.10;99.90
7290;DHT22;63176;52.678;13.250;2024-02-28T15:36:44;6.10;99.90
7290;DHT22;63176;52.678;13.250;2024-02-28T15:39:09;6.00;99.90
7290;DHT22;63176;52.678;13.250;2024-02-28T15:41:35;6.00;99.90
7290;DHT22;63176;52.678;13.250;2024-02-28T15:44:01;6.00;99.90